Minneapolis, Minnesota
Current Conditions -  °F | °C
As of 3:53 AM on Saturday 22 Nov 2014 (Local Time) from KMSP Reporting Station
Haze Haze  
Wind Chill: 28°   Ceiling: 900
Heat Index: 36°   Visibility: 4mi
Dew Point: 32°   Wind: 10mph
Humidity: 86%   Direction: 200°SSW
Pressure: 29.81"   Gusts: NA
Location:  44.98°N, 93.26°W
Report Text: KMSP 220953Z 20009KT 4SM BR OVC009 02/00 A2981 RMK AO2 SLP105 T00220000
Loading
Personal Weather Stations






























Interactive Weather Map New forecast layout! Learn more

10-Day Weather Forecast

Advertisements
Track Severe Weather on mobile